sensor_id;sensor_type;location;lat;lon;timestamp;temperature;humidity
20487;DHT22;10402;49.012;8.370;2023-04-30T00:00:25;13.60;87.00
20487;DHT22;10402;49.012;8.370;2023-04-30T00:02:50;13.60;87.00
20487;DHT22;10402;49.012;8.370;2023-04-30T00:05:16;13.70;87.00
20487;DHT22;10402;49.012;8.370;2023-04-30T00:07:41;13.60;87.00
20487;DHT22;10402;49.012;8.370;2023-04-30T00:10:10;13.60;87.00
20487;DHT22;10402;49.012;8.370;2023-04-30T00:12:36;13.60;87.10
20487;DHT22;10402;49.012;8.370;2023-04-30T00:15:02;13.60;87.20
20487;DHT22;10402;49.012;8.370;2023-04-30T00:17:27;13.60;87.40
20487;DHT22;10402;49.012;8.370;2023-04-30T00:19:53;13.60;87.40
20487;DHT22;10402;49.012;8.370;2023-04-30T00:22:18;13.60;87.60
20487;DHT22;10402;49.012;8.370;2023-04-30T00:24:44;13.50;87.50
20487;DHT22;10402;49.012;8.370;2023-04-30T00:27:09;13.60;87.70
20487;DHT22;10402;49.012;8.370;2023-04-30T00:29:35;13.60;87.50
20487;DHT22;10402;49.012;8.370;2023-04-30T00:32:02;13.50;87.50
20487;DHT22;10402;49.012;8.370;2023-04-30T00:34:27;13.50;87.60
20487;DHT22;10402;49.012;8.370;2023-04-30T00:36:53;13.50;87.70
20487;DHT22;10402;49.012;8.370;2023-04-30T00:39:18;13.50;87.70
20487;DHT22;10402;49.012;8.370;2023-04-30T00:41:47;13.40;87.70
20487;DHT22;10402;49.012;8.370;2023-04-30T00:44:12;13.50;87.90
20487;DHT22;10402;49.012;8.370;2023-04-30T00:46:38;13.50;87.60
20487;DHT22;10402;49.012;8.370;2023-04-30T00:49:03;13.50;87.50
20487;DHT22;10402;49.012;8.370;2023-04-30T00:51:31;13.40;87.50
20487;DHT22;10402;49.012;8.370;2023-04-30T00:54:00;13.30;87.70
20487;DHT22;10402;49.012;8.370;2023-04-30T00:56:28;13.30;87.80
20487;DHT22;10402;49.012;8.370;2023-04-30T00:58:55;13.30;88.00
20487;DHT22;10402;49.012;8.370;2023-04-30T01:01:25;13.20;88.10
20487;DHT22;10402;49.012;8.370;2023-04-30T01:03:53;13.20;88.20
20487;DHT22;10402;49.012;8.370;2023-04-30T01:06:18;13.20;88.20
20487;DHT22;10402;49.012;8.370;2023-04-30T01:08:44;13.20;88.30
20487;DHT22;10402;49.012;8.370;2023-04-30T01:14:12;13.20;88.30
20487;DHT22;10402;49.012;8.370;2023-04-30T01:19:41;13.20;88.30
20487;DHT22;10402;49.012;8.370;2023-04-30T01:22:34;13.20;88.30
20487;DHT22;10402;49.012;8.370;2023-04-30T01:28:08;13.20;88.30
20487;DHT22;10402;49.012;8.370;2023-04-30T01:30:35;13.20;88.30
20487;DHT22;10402;49.012;8.370;2023-04-30T01:33:01;13.10;88.70
20487;DHT22;10402;49.012;8.370;2023-04-30T01:44:23;13.10;88.80
20487;DHT22;10402;49.012;8.370;2023-04-30T01:47:02;13.10;88.80
20487;DHT22;10402;49.012;8.370;2023-04-30T01:50:11;13.10;88.80
20487;DHT22;10402;49.012;8.370;2023-04-30T01:55:13;13.10;89.00
20487;DHT22;10402;49.012;8.370;2023-04-30T01:57:56;13.10;89.00
20487;DHT22;10402;49.012;8.370;2023-04-30T02:00:24;13.00;89.00
20487;DHT22;10402;49.012;8.370;2023-04-30T02:02:50;13.00;89.20
20487;DHT22;10402;49.012;8.370;2023-04-30T02:05:15;13.00;89.20
20487;DHT22;10402;49.012;8.370;2023-04-30T02:07:42;13.00;89.40
20487;DHT22;10402;49.012;8.370;2023-04-30T02:10:09;13.00;89.50
20487;DHT22;10402;49.012;8.370;2023-04-30T02:12:36;13.00;89.50
20487;DHT22;10402;49.012;8.370;2023-04-30T02:15:03;13.00;89.20
20487;DHT22;10402;49.012;8.370;2023-04-30T02:17:28;13.00;89.30
20487;DHT22;10402;49.012;8.370;2023-04-30T02:19:54;13.00;89.40
20487;DHT22;10402;49.012;8.370;2023-04-30T02:22:19;12.90;89.40
20487;DHT22;10402;49.012;8.370;2023-04-30T02:24:45;12.90;89.60
20487;DHT22;10402;49.012;8.370;2023-04-30T02:27:10;12.90;89.60
20487;DHT22;10402;49.012;8.370;2023-04-30T02:29:36;13.00;89.70
20487;DHT22;10402;49.012;8.370;2023-04-30T02:32:01;13.00;89.70
20487;DHT22;10402;49.012;8.370;2023-04-30T02:34:27;13.00;89.60
20487;DHT22;10402;49.012;8.370;2023-04-30T02:36:52;13.00;90.20
20487;DHT22;10402;49.012;8.370;2023-04-30T02:39:18;13.00;89.70
20487;DHT22;10402;49.012;8.370;2023-04-30T02:41:43;13.00;89.70
20487;DHT22;10402;49.012;8.370;2023-04-30T02:44:10;12.90;89.80
20487;DHT22;10402;49.012;8.370;2023-04-30T02:46:35;12.90;89.90
20487;DHT22;10402;49.012;8.370;2023-04-30T02:49:01;12.90;89.90
20487;DHT22;10402;49.012;8.370;2023-04-30T02:51:27;12.90;90.00
20487;DHT22;10402;49.012;8.370;2023-04-30T02:53:52;12.90;90.00
20487;DHT22;10402;49.012;8.370;2023-04-30T02:56:18;12.90;90.00
20487;DHT22;10402;49.012;8.370;2023-04-30T02:58:44;12.90;90.00
20487;DHT22;10402;49.012;8.370;2023-04-30T03:01:09;12.80;90.00
20487;DHT22;10402;49.012;8.370;2023-04-30T03:03:35;12.80;90.00
20487;DHT22;10402;49.012;8.370;2023-04-30T03:06:00;12.70;90.10
20487;DHT22;10402;49.012;8.370;2023-04-30T03:08:26;12.70;90.20
20487;DHT22;10402;49.012;8.370;2023-04-30T03:10:52;12.60;90.20
20487;DHT22;10402;49.012;8.370;2023-04-30T03:13:17;12.60;90.20
20487;DHT22;10402;49.012;8.370;2023-04-30T03:15:43;12.60;90.30
20487;DHT22;10402;49.012;8.370;2023-04-30T03:18:09;12.60;90.30
20487;DHT22;10402;49.012;8.370;2023-04-30T03:20:35;12.60;90.30
20487;DHT22;10402;49.012;8.370;2023-04-30T03:23:01;12.60;90.30
20487;DHT22;10402;49.012;8.370;2023-04-30T03:25:26;12.60;90.30
20487;DHT22;10402;49.012;8.370;2023-04-30T03:27:52;12.60;90.40
20487;DHT22;10402;49.012;8.370;2023-04-30T03:30:17;12.60;90.40
20487;DHT22;10402;49.012;8.370;2023-04-30T03:32:43;12.60;90.40
20487;DHT22;10402;49.012;8.370;2023-04-30T03:35:08;12.60;90.40
20487;DHT22;10402;49.012;8.370;2023-04-30T03:37:34;12.60;90.40
20487;DHT22;10402;49.012;8.370;2023-04-30T03:40:00;12.60;90.40
20487;DHT22;10402;49.012;8.370;2023-04-30T03:42:25;12.60;90.40
20487;DHT22;10402;49.012;8.370;2023-04-30T03:44:51;12.50;90.40
20487;DHT22;10402;49.012;8.370;2023-04-30T03:47:16;12.60;90.50
20487;DHT22;10402;49.012;8.370;2023-04-30T03:49:42;12.60;90.30
20487;DHT22;10402;49.012;8.370;2023-04-30T03:52:07;12.50;90.30
20487;DHT22;10402;49.012;8.370;2023-04-30T03:54:33;12.50;90.40
20487;DHT22;10402;49.012;8.370;2023-04-30T03:56:59;12.60;90.40
20487;DHT22;10402;49.012;8.370;2023-04-30T03:59:28;12.50;90.20
20487;DHT22;10402;49.012;8.370;2023-04-30T04:01:53;12.50;90.30
20487;DHT22;10402;49.012;8.370;2023-04-30T04:04:20;12.60;90.30
20487;DHT22;10402;49.012;8.370;2023-04-30T04:06:45;12.60;90.30
20487;DHT22;10402;49.012;8.370;2023-04-30T04:09:11;12.60;90.20
20487;DHT22;10402;49.012;8.370;2023-04-30T04:11:36;12.60;90.20
20487;DHT22;10402;49.012;8.370;2023-04-30T04:14:02;12.60;90.20
20487;DHT22;10402;49.012;8.370;2023-04-30T04:16:27;12.60;90.30
20487;DHT22;10402;49.012;8.370;2023-04-30T04:18:53;12.60;90.20
20487;DHT22;10402;49.012;8.370;2023-04-30T04:21:18;12.60;90.20
20487;DHT22;10402;49.012;8.370;2023-04-30T04:23:44;12.60;90.20
20487;DHT22;10402;49.012;8.370;2023-04-30T04:26:10;12.50;90.10
20487;DHT22;10402;49.012;8.370;2023-04-30T04:28:35;12.50;90.10
20487;DHT22;10402;49.012;8.370;2023-04-30T04:31:02;12.50;90.20
20487;DHT22;10402;49.012;8.370;2023-04-30T04:33:28;12.50;90.30
20487;DHT22;10402;49.012;8.370;2023-04-30T04:35:53;12.40;90.50
20487;DHT22;10402;49.012;8.370;2023-04-30T04:38:19;12.40;90.20
20487;DHT22;10402;49.012;8.370;2023-04-30T04:40:52;12.40;90.40
20487;DHT22;10402;49.012;8.370;2023-04-30T04:43:18;12.40;90.30
20487;DHT22;10402;49.012;8.370;2023-04-30T04:45:44;12.50;90.30
20487;DHT22;10402;49.012;8.370;2023-04-30T04:48:10;12.40;90.20
20487;DHT22;10402;49.012;8.370;2023-04-30T04:50:35;12.40;90.20
20487;DHT22;10402;49.012;8.370;2023-04-30T04:53:01;12.50;90.20
20487;DHT22;10402;49.012;8.370;2023-04-30T04:55:26;12.50;90.40
20487;DHT22;10402;49.012;8.370;2023-04-30T04:57:52;12.50;90.20
20487;DHT22;10402;49.012;8.370;2023-04-30T05:00:17;12.50;90.10
20487;DHT22;10402;49.012;8.370;2023-04-30T05:02:43;12.40;90.10
20487;DHT22;10402;49.012;8.370;2023-04-30T05:05:08;12.40;90.20
20487;DHT22;10402;49.012;8.370;2023-04-30T05:07:35;12.40;90.20
20487;DHT22;10402;49.012;8.370;2023-04-30T05:10:01;12.50;90.20
20487;DHT22;10402;49.012;8.370;2023-04-30T05:12:26;12.50;90.10
20487;DHT22;10402;49.012;8.370;2023-04-30T05:14:52;12.50;90.10
20487;DHT22;10402;49.012;8.370;2023-04-30T05:17:17;12.60;90.10
20487;DHT22;10402;49.012;8.370;2023-04-30T05:19:43;12.50;90.00
20487;DHT22;10402;49.012;8.370;2023-04-30T05:22:08;12.50;90.00
20487;DHT22;10402;49.012;8.370;2023-04-30T05:24:34;12.50;90.10
20487;DHT22;10402;49.012;8.370;2023-04-30T05:26:59;12.50;90.10
20487;DHT22;10402;49.012;8.370;2023-04-30T05:29:27;12.50;90.20
20487;DHT22;10402;49.012;8.370;2023-04-30T05:31:52;12.50;90.10
20487;DHT22;10402;49.012;8.370;2023-04-30T05:34:18;12.60;90.10
20487;DHT22;10402;49.012;8.370;2023-04-30T05:36:44;12.60;90.10
20487;DHT22;10402;49.012;8.370;2023-04-30T05:39:10;12.60;90.00
20487;DHT22;10402;49.012;8.370;2023-04-30T05:41:35;12.60;89.80
20487;DHT22;10402;49.012;8.370;2023-04-30T05:44:01;12.60;90.00
20487;DHT22;10402;49.012;8.370;2023-04-30T05:46:27;12.60;90.10
20487;DHT22;10402;49.012;8.370;2023-04-30T05:48:52;12.60;89.90
20487;DHT22;10402;49.012;8.370;2023-04-30T05:51:18;12.70;89.80
20487;DHT22;10402;49.012;8.370;2023-04-30T05:53:43;12.70;89.40
20487;DHT22;10402;49.012;8.370;2023-04-30T05:56:09;12.60;89.30
20487;DHT22;10402;49.012;8.370;2023-04-30T05:58:34;12.60;89.40
20487;DHT22;10402;49.012;8.370;2023-04-30T06:01:00;12.60;89.60
20487;DHT22;10402;49.012;8.370;2023-04-30T06:03:25;12.60;89.40
20487;DHT22;10402;49.012;8.370;2023-04-30T06:05:51;12.70;89.30
20487;DHT22;10402;49.012;8.370;2023-04-30T06:08:16;12.70;88.70
20487;DHT22;10402;49.012;8.370;2023-04-30T06:10:42;12.70;88.70
20487;DHT22;10402;49.012;8.370;2023-04-30T06:13:08;12.70;88.80
20487;DHT22;10402;49.012;8.370;2023-04-30T06:15:33;12.80;88.70
20487;DHT22;10402;49.012;8.370;2023-04-30T06:17:59;12.90;88.60
20487;DHT22;10402;49.012;8.370;2023-04-30T06:20:24;13.00;88.40
20487;DHT22;10402;49.012;8.370;2023-04-30T06:22:51;13.10;88.20
20487;DHT22;10402;49.012;8.370;2023-04-30T06:25:17;13.20;88.20
20487;DHT22;10402;49.012;8.370;2023-04-30T06:27:43;13.20;87.70
20487;DHT22;10402;49.012;8.370;2023-04-30T06:30:08;13.20;87.80
20487;DHT22;10402;49.012;8.370;2023-04-30T06:32:34;13.30;87.80
20487;DHT22;10402;49.012;8.370;2023-04-30T06:35:00;13.40;87.80
20487;DHT22;10402;49.012;8.370;2023-04-30T06:37:25;13.40;87.20
20487;DHT22;10402;49.012;8.370;2023-04-30T06:39:51;13.40;87.10
20487;DHT22;10402;49.012;8.370;2023-04-30T06:42:16;13.40;87.00
20487;DHT22;10402;49.012;8.370;2023-04-30T06:44:42;13.50;87.20
20487;DHT22;10402;49.012;8.370;2023-04-30T06:47:07;13.50;86.90
20487;DHT22;10402;49.012;8.370;2023-04-30T06:49:33;13.50;86.70
20487;DHT22;10402;49.012;8.370;2023-04-30T06:51:58;13.50;86.40
20487;DHT22;10402;49.012;8.370;2023-04-30T06:54:24;13.50;86.50
20487;DHT22;10402;49.012;8.370;2023-04-30T06:56:52;13.60;86.70
20487;DHT22;10402;49.012;8.370;2023-04-30T06:59:17;13.70;86.30
20487;DHT22;10402;49.012;8.370;2023-04-30T07:01:43;13.70;86.20
20487;DHT22;10402;49.012;8.370;2023-04-30T07:04:08;13.80;86.10
20487;DHT22;10402;49.012;8.370;2023-04-30T07:06:34;13.80;85.60
20487;DHT22;10402;49.012;8.370;2023-04-30T07:08:59;13.90;85.40
20487;DHT22;10402;49.012;8.370;2023-04-30T07:11:25;13.90;85.40
20487;DHT22;10402;49.012;8.370;2023-04-30T07:13:51;13.90;85.30
20487;DHT22;10402;49.012;8.370;2023-04-30T07:16:16;14.00;85.30
20487;DHT22;10402;49.012;8.370;2023-04-30T07:18:42;14.00;84.60
20487;DHT22;10402;49.012;8.370;2023-04-30T07:21:07;14.00;84.80
20487;DHT22;10402;49.012;8.370;2023-04-30T07:23:33;14.10;84.50
20487;DHT22;10402;49.012;8.370;2023-04-30T07:25:59;14.10;84.40
20487;DHT22;10402;49.012;8.370;2023-04-30T07:28:25;14.20;84.10
20487;DHT22;10402;49.012;8.370;2023-04-30T07:30:50;14.20;84.10
20487;DHT22;10402;49.012;8.370;2023-04-30T07:33:16;14.30;83.90
20487;DHT22;10402;49.012;8.370;2023-04-30T07:35:42;14.30;83.50
20487;DHT22;10402;49.012;8.370;2023-04-30T07:38:07;14.40;84.00
20487;DHT22;10402;49.012;8.370;2023-04-30T07:40:33;14.50;84.00
20487;DHT22;10402;49.012;8.370;2023-04-30T07:42:58;14.60;83.40
20487;DHT22;10402;49.012;8.370;2023-04-30T07:45:24;14.60;82.80
20487;DHT22;10402;49.012;8.370;2023-04-30T07:47:49;14.60;82.60
20487;DHT22;10402;49.012;8.370;2023-04-30T07:50:15;14.60;82.50
20487;DHT22;10402;49.012;8.370;2023-04-30T07:52:41;14.60;82.20
20487;DHT22;10402;49.012;8.370;2023-04-30T07:55:07;14.70;82.00
20487;DHT22;10402;49.012;8.370;2023-04-30T07:57:32;14.70;81.90
20487;DHT22;10402;49.012;8.370;2023-04-30T07:59:58;14.80;82.40
20487;DHT22;10402;49.012;8.370;2023-04-30T08:02:23;14.80;81.50
20487;DHT22;10402;49.012;8.370;2023-04-30T08:04:49;14.90;81.30
20487;DHT22;10402;49.012;8.370;2023-04-30T08:07:15;15.00;80.90
20487;DHT22;10402;49.012;8.370;2023-04-30T08:09:40;15.10;81.00
20487;DHT22;10402;49.012;8.370;2023-04-30T08:12:07;15.20;80.80
20487;DHT22;10402;49.012;8.370;2023-04-30T08:14:33;15.20;79.10
20487;DHT22;10402;49.012;8.370;2023-04-30T08:16:58;15.20;78.70
20487;DHT22;10402;49.012;8.370;2023-04-30T08:19:25;15.20;78.90
20487;DHT22;10402;49.012;8.370;2023-04-30T08:21:51;15.30;79.20
20487;DHT22;10402;49.012;8.370;2023-04-30T08:24:16;15.30;78.60
20487;DHT22;10402;49.012;8.370;2023-04-30T08:26:42;15.30;77.70
20487;DHT22;10402;49.012;8.370;2023-04-30T08:29:07;15.40;77.10
20487;DHT22;10402;49.012;8.370;2023-04-30T08:31:33;15.40;77.20
20487;DHT22;10402;49.012;8.370;2023-04-30T08:33:59;15.40;76.50
20487;DHT22;10402;49.012;8.370;2023-04-30T08:36:25;15.50;76.30
20487;DHT22;10402;49.012;8.370;2023-04-30T08:38:52;15.50;76.30
20487;DHT22;10402;49.012;8.370;2023-04-30T08:41:19;15.50;76.00
20487;DHT22;10402;49.012;8.370;2023-04-30T08:43:47;15.60;76.00
20487;DHT22;10402;49.012;8.370;2023-04-30T08:46:17;15.60;75.30
20487;DHT22;10402;49.012;8.370;2023-04-30T08:48:43;15.60;74.80
20487;DHT22;10402;49.012;8.370;2023-04-30T08:51:09;15.60;75.00
20487;DHT22;10402;49.012;8.370;2023-04-30T08:53:36;15.60;74.70
20487;DHT22;10402;49.012;8.370;2023-04-30T08:56:05;15.60;75.00
20487;DHT22;10402;49.012;8.370;2023-04-30T08:58:31;15.60;74.30
20487;DHT22;10402;49.012;8.370;2023-04-30T09:00:57;15.60;74.10
20487;DHT22;10402;49.012;8.370;2023-04-30T09:03:24;15.60;74.40
20487;DHT22;10402;49.012;8.370;2023-04-30T09:05:50;15.70;74.50
20487;DHT22;10402;49.012;8.370;2023-04-30T09:08:17;15.70;74.10
20487;DHT22;10402;49.012;8.370;2023-04-30T09:10:44;15.70;74.10
20487;DHT22;10402;49.012;8.370;2023-04-30T09:13:09;15.80;74.00
20487;DHT22;10402;49.012;8.370;2023-04-30T09:15:38;15.80;73.70
20487;DHT22;10402;49.012;8.370;2023-04-30T09:18:16;15.90;74.40
20487;DHT22;10402;49.012;8.370;2023-04-30T09:21:01;15.90;73.00
20487;DHT22;10402;49.012;8.370;2023-04-30T09:23:28;15.90;72.60
20487;DHT22;10402;49.012;8.370;2023-04-30T09:25:54;16.00;72.30
20487;DHT22;10402;49.012;8.370;2023-04-30T09:28:20;16.10;71.70
20487;DHT22;10402;49.012;8.370;2023-04-30T09:30:49;16.10;71.40
20487;DHT22;10402;49.012;8.370;2023-04-30T09:33:15;16.20;71.60
20487;DHT22;10402;49.012;8.370;2023-04-30T09:35:40;16.20;71.20
20487;DHT22;10402;49.012;8.370;2023-04-30T09:38:07;16.30;71.10
20487;DHT22;10402;49.012;8.370;2023-04-30T09:40:38;16.30;70.80
20487;DHT22;10402;49.012;8.370;2023-04-30T09:43:05;16.30;70.10
20487;DHT22;10402;49.012;8.370;2023-04-30T09:45:46;16.30;70.50
20487;DHT22;10402;49.012;8.370;2023-04-30T09:48:23;16.30;69.40
20487;DHT22;10402;49.012;8.370;2023-04-30T09:50:50;16.30;69.60
20487;DHT22;10402;49.012;8.370;2023-04-30T09:53:16;16.30;68.70
20487;DHT22;10402;49.012;8.370;2023-04-30T09:55:46;16.30;68.70
20487;DHT22;10402;49.012;8.370;2023-04-30T09:58:12;16.30;68.70
20487;DHT22;10402;49.012;8.370;2023-04-30T10:00:39;16.40;68.80
20487;DHT22;10402;49.012;8.370;2023-04-30T10:03:06;16.40;68.10
20487;DHT22;10402;49.012;8.370;2023-04-30T10:05:42;16.40;68.40
20487;DHT22;10402;49.012;8.370;2023-04-30T10:08:24;16.40;67.60
20487;DHT22;10402;49.012;8.370;2023-04-30T10:11:05;16.50;67.30
20487;DHT22;10402;49.012;8.370;2023-04-30T10:13:37;16.50;67.20
20487;DHT22;10402;49.012;8.370;2023-04-30T10:19:03;16.50;66.90
20487;DHT22;10402;49.012;8.370;2023-04-30T10:21:31;16.60;67.30
20487;DHT22;10402;49.012;8.370;2023-04-30T10:23:57;16.60;67.00
20487;DHT22;10402;49.012;8.370;2023-04-30T10:26:23;16.60;66.70
20487;DHT22;10402;49.012;8.370;2023-04-30T10:28:51;16.60;66.60
20487;DHT22;10402;49.012;8.370;2023-04-30T10:31:18;16.70;66.30
20487;DHT22;10402;49.012;8.370;2023-04-30T10:33:59;16.70;66.00
20487;DHT22;10402;49.012;8.370;2023-04-30T10:36:37;16.70;64.70
20487;DHT22;10402;49.012;8.370;2023-04-30T10:39:05;16.70;64.80
20487;DHT22;10402;49.012;8.370;2023-04-30T10:41:31;16.80;64.80
20487;DHT22;10402;49.012;8.370;2023-04-30T10:43:59;16.80;64.90
20487;DHT22;10402;49.012;8.370;2023-04-30T10:46:25;16.80;63.90
20487;DHT22;10402;49.012;8.370;2023-04-30T10:48:53;16.80;63.20
20487;DHT22;10402;49.012;8.370;2023-04-30T10:51:19;16.90;63.70
20487;DHT22;10402;49.012;8.370;2023-04-30T10:53:49;16.90;63.20
20487;DHT22;10402;49.012;8.370;2023-04-30T10:56:31;16.90;62.80
20487;DHT22;10402;49.012;8.370;2023-04-30T10:59:00;16.90;62.40
20487;DHT22;10402;49.012;8.370;2023-04-30T11:01:29;16.90;62.70
20487;DHT22;10402;49.012;8.370;2023-04-30T11:04:06;17.00;62.60
20487;DHT22;10402;49.012;8.370;2023-04-30T11:09:17;17.10;63.10
20487;DHT22;10402;49.012;8.370;2023-04-30T11:11:46;17.10;62.50
20487;DHT22;10402;49.012;8.370;2023-04-30T11:14:19;17.20;62.20
20487;DHT22;10402;49.012;8.370;2023-04-30T11:16:48;17.20;62.10
20487;DHT22;10402;49.012;8.370;2023-04-30T11:19:14;17.20;61.80
20487;DHT22;10402;49.012;8.370;2023-04-30T11:21:43;17.30;61.70
20487;DHT22;10402;49.012;8.370;2023-04-30T11:27:25;17.30;61.00
20487;DHT22;10402;49.012;8.370;2023-04-30T11:29:51;17.30;60.40
20487;DHT22;10402;49.012;8.370;2023-04-30T11:32:18;17.30;60.10
20487;DHT22;10402;49.012;8.370;2023-04-30T11:34:44;17.30;60.50
20487;DHT22;10402;49.012;8.370;2023-04-30T11:37:41;17.40;60.20
20487;DHT22;10402;49.012;8.370;2023-04-30T11:40:09;17.50;60.10
20487;DHT22;10402;49.012;8.370;2023-04-30T11:42:39;17.50;59.90
20487;DHT22;10402;49.012;8.370;2023-04-30T11:45:11;17.60;59.80
20487;DHT22;10402;49.012;8.370;2023-04-30T11:47:44;17.60;59.70
20487;DHT22;10402;49.012;8.370;2023-04-30T11:50:12;17.60;59.40
20487;DHT22;10402;49.012;8.370;2023-04-30T11:52:39;17.80;59.50
20487;DHT22;10402;49.012;8.370;2023-04-30T11:55:16;17.80;59.00
20487;DHT22;10402;49.012;8.370;2023-04-30T11:57:43;17.90;59.10
20487;DHT22;10402;49.012;8.370;2023-04-30T12:00:16;18.00;59.10
20487;DHT22;10402;49.012;8.370;2023-04-30T12:02:43;18.00;58.80
20487;DHT22;10402;49.012;8.370;2023-04-30T12:05:17;18.00;57.90
20487;DHT22;10402;49.012;8.370;2023-04-30T12:07:53;17.90;58.20
20487;DHT22;10402;49.012;8.370;2023-04-30T12:10:19;17.90;57.60
20487;DHT22;10402;49.012;8.370;2023-04-30T12:12:46;17.90;57.80
20487;DHT22;10402;49.012;8.370;2023-04-30T12:15:16;18.00;57.80
20487;DHT22;10402;49.012;8.370;2023-04-30T12:17:44;18.00;57.20
20487;DHT22;10402;49.012;8.370;2023-04-30T12:20:11;18.00;57.60
20487;DHT22;10402;49.012;8.370;2023-04-30T12:22:37;18.00;57.80
20487;DHT22;10402;49.012;8.370;2023-04-30T12:25:08;18.10;57.30
20487;DHT22;10402;49.012;8.370;2023-04-30T12:27:41;18.10;57.70
20487;DHT22;10402;49.012;8.370;2023-04-30T12:30:08;18.10;57.00
20487;DHT22;10402;49.012;8.370;2023-04-30T12:32:44;18.00;56.80
20487;DHT22;10402;49.012;8.370;2023-04-30T12:35:18;18.10;57.00
20487;DHT22;10402;49.012;8.370;2023-04-30T12:37:45;18.10;57.00
20487;DHT22;10402;49.012;8.370;2023-04-30T12:40:14;18.20;57.20
20487;DHT22;10402;49.012;8.370;2023-04-30T12:42:41;18.20;57.10
20487;DHT22;10402;49.012;8.370;2023-04-30T12:45:08;18.20;57.10
20487;DHT22;10402;49.012;8.370;2023-04-30T12:47:38;18.20;57.00
20487;DHT22;10402;49.012;8.370;2023-04-30T12:50:10;18.20;56.70
20487;DHT22;10402;49.012;8.370;2023-04-30T12:52:39;18.10;56.50
20487;DHT22;10402;49.012;8.370;2023-04-30T12:55:19;18.00;56.30
20487;DHT22;10402;49.012;8.370;2023-04-30T12:58:08;18.10;56.70
20487;DHT22;10402;49.012;8.370;2023-04-30T13:00:48;18.10;56.90
20487;DHT22;10402;49.012;8.370;2023-04-30T13:03:16;18.10;56.70
20487;DHT22;10402;49.012;8.370;2023-04-30T13:05:46;18.10;56.60
20487;DHT22;10402;49.012;8.370;2023-04-30T13:08:13;18.00;56.10
20487;DHT22;10402;49.012;8.370;2023-04-30T13:10:39;18.00;56.40
20487;DHT22;10402;49.012;8.370;2023-04-30T13:13:04;18.00;56.60
20487;DHT22;10402;49.012;8.370;2023-04-30T13:15:30;18.10;56.70
20487;DHT22;10402;49.012;8.370;2023-04-30T13:17:55;18.20;56.40
20487;DHT22;10402;49.012;8.370;2023-04-30T13:20:21;18.20;55.90
20487;DHT22;10402;49.012;8.370;2023-04-30T13:22:49;18.20;55.80
20487;DHT22;10402;49.012;8.370;2023-04-30T13:25:15;18.20;55.80
20487;DHT22;10402;49.012;8.370;2023-04-30T13:27:41;18.10;55.70
20487;DHT22;10402;49.012;8.370;2023-04-30T13:30:08;18.10;55.80
20487;DHT22;10402;49.012;8.370;2023-04-30T13:32:33;18.20;55.90
20487;DHT22;10402;49.012;8.370;2023-04-30T13:34:59;18.30;56.00
20487;DHT22;10402;49.012;8.370;2023-04-30T13:37:25;18.50;56.00
20487;DHT22;10402;49.012;8.370;2023-04-30T13:39:51;18.60;55.80
20487;DHT22;10402;49.012;8.370;2023-04-30T13:42:16;18.60;55.60
20487;DHT22;10402;49.012;8.370;2023-04-30T13:44:42;18.50;54.80
20487;DHT22;10402;49.012;8.370;2023-04-30T13:47:10;18.50;55.30
20487;DHT22;10402;49.012;8.370;2023-04-30T13:49:35;18.50;54.60
20487;DHT22;10402;49.012;8.370;2023-04-30T13:52:02;18.50;55.20
20487;DHT22;10402;49.012;8.370;2023-04-30T13:54:28;18.50;55.20
20487;DHT22;10402;49.012;8.370;2023-04-30T13:56:53;18.50;54.50
20487;DHT22;10402;49.012;8.370;2023-04-30T13:59:19;18.40;54.30
20487;DHT22;10402;49.012;8.370;2023-04-30T14:01:45;18.40;54.00
20487;DHT22;10402;49.012;8.370;2023-04-30T14:04:10;18.50;54.40
20487;DHT22;10402;49.012;8.370;2023-04-30T14:06:36;18.50;54.40
20487;DHT22;10402;49.012;8.370;2023-04-30T14:09:03;18.70;54.20
20487;DHT22;10402;49.012;8.370;2023-04-30T14:11:28;18.70;54.10
20487;DHT22;10402;49.012;8.370;2023-04-30T14:13:54;18.70;54.00
20487;DHT22;10402;49.012;8.370;2023-04-30T14:16:19;18.70;54.20
20487;DHT22;10402;49.012;8.370;2023-04-30T14:18:46;18.70;54.30
20487;DHT22;10402;49.012;8.370;2023-04-30T14:21:12;18.70;53.70
20487;DHT22;10402;49.012;8.370;2023-04-30T14:23:38;18.70;53.70
20487;DHT22;10402;49.012;8.370;2023-04-30T14:26:04;18.70;53.60
20487;DHT22;10402;49.012;8.370;2023-04-30T14:28:30;18.60;53.50
20487;DHT22;10402;49.012;8.370;2023-04-30T14:30:55;18.60;53.60
20487;DHT22;10402;49.012;8.370;2023-04-30T14:33:21;18.60;53.80
20487;DHT22;10402;49.012;8.370;2023-04-30T14:35:47;18.70;53.80
20487;DHT22;10402;49.012;8.370;2023-04-30T14:38:13;18.70;53.70
20487;DHT22;10402;49.012;8.370;2023-04-30T14:40:38;18.70;53.60
20487;DHT22;10402;49.012;8.370;2023-04-30T14:43:04;18.60;53.50
20487;DHT22;10402;49.012;8.370;2023-04-30T14:45:32;18.60;52.90
20487;DHT22;10402;49.012;8.370;2023-04-30T14:47:58;18.50;53.00
20487;DHT22;10402;49.012;8.370;2023-04-30T14:50:23;18.60;53.20
20487;DHT22;10402;49.012;8.370;2023-04-30T14:52:49;18.60;53.20
20487;DHT22;10402;49.012;8.370;2023-04-30T14:55:15;18.60;53.30
20487;DHT22;10402;49.012;8.370;2023-04-30T14:57:40;18.60;53.30
20487;DHT22;10402;49.012;8.370;2023-04-30T15:00:07;18.70;53.20
20487;DHT22;10402;49.012;8.370;2023-04-30T15:02:32;18.70;52.90
20487;DHT22;10402;49.012;8.370;2023-04-30T15:04:58;18.70;52.90
20487;DHT22;10402;49.012;8.370;2023-04-30T15:07:23;18.70;52.70
20487;DHT22;10402;49.012;8.370;2023-04-30T15:09:49;18.70;52.80
20487;DHT22;10402;49.012;8.370;2023-04-30T15:12:14;18.60;52.70
20487;DHT22;10402;49.012;8.370;2023-04-30T15:14:40;18.60;52.90
20487;DHT22;10402;49.012;8.370;2023-04-30T15:17:05;18.70;52.80
20487;DHT22;10402;49.012;8.370;2023-04-30T15:19:31;18.70;53.00
20487;DHT22;10402;49.012;8.370;2023-04-30T15:21:57;18.70;53.00
20487;DHT22;10402;49.012;8.370;2023-04-30T15:24:22;18.80;52.90
20487;DHT22;10402;49.012;8.370;2023-04-30T15:26:48;18.70;52.50
20487;DHT22;10402;49.012;8.370;2023-04-30T15:29:15;18.70;52.50
20487;DHT22;10402;49.012;8.370;2023-04-30T15:31:41;18.70;52.80
20487;DHT22;10402;49.012;8.370;2023-04-30T15:34:06;18.70;52.40
20487;DHT22;10402;49.012;8.370;2023-04-30T15:36:32;18.70;52.60
20487;DHT22;10402;49.012;8.370;2023-04-30T15:38:58;18.70;52.70
20487;DHT22;10402;49.012;8.370;2023-04-30T15:41:23;18.60;52.40
20487;DHT22;10402;49.012;8.370;2023-04-30T15:43:49;18.60;52.40
20487;DHT22;10402;49.012;8.370;2023-04-30T15:46:15;18.60;52.50
20487;DHT22;10402;49.012;8.370;2023-04-30T15:48:40;18.60;52.10
20487;DHT22;10402;49.012;8.370;2023-04-30T15:51:06;18.60;51.70
20487;DHT22;10402;49.012;8.370;2023-04-30T15:53:31;18.50;51.80
20487;DHT22;10402;49.012;8.370;2023-04-30T15:55:57;18.50;51.80
20487;DHT22;10402;49.012;8.370;2023-04-30T15:58:22;18.50;52.00